createdAt,value
2023-03-13T00:02:23.604Z,0.67
2023-03-13T00:04:52.049Z,0.63
2023-03-13T00:07:30.959Z,0.58
2023-03-13T00:10:18.992Z,0.54
2023-03-13T00:12:47.974Z,0.51
2023-03-13T00:15:18.295Z,0.47
2023-03-13T00:17:50.455Z,0.44
2023-03-13T00:20:19.867Z,0.40
2023-03-13T00:22:53.328Z,0.36
2023-03-13T00:25:21.575Z,0.33
2023-03-13T00:27:50.737Z,0.30
2023-03-13T00:30:23.105Z,0.27
2023-03-13T00:32:56.628Z,0.25
2023-03-13T00:35:25.442Z,0.22
2023-03-13T00:37:54.825Z,0.21
2023-03-13T00:40:27.493Z,0.20
2023-03-13T00:42:57.984Z,0.19
2023-03-13T00:45:27.623Z,0.17
2023-03-13T00:47:56.414Z,0.15
2023-03-13T00:50:28.892Z,0.13
2023-03-13T00:52:57.768Z,0.13
2023-03-13T00:55:25.834Z,0.23
2023-03-13T00:57:55.253Z,0.32
2023-03-13T01:00:24.349Z,0.39
2023-03-13T01:02:54.851Z,0.43
2023-03-13T01:05:23.360Z,0.41
2023-03-13T01:07:52.975Z,0.42
2023-03-13T01:10:27.085Z,0.40
2023-03-13T01:12:55.682Z,0.37
2023-03-13T01:15:24.562Z,0.33
2023-03-13T01:17:55.015Z,0.29
2023-03-13T01:20:27.165Z,0.25
2023-03-13T01:22:55.321Z,0.22
2023-03-13T01:25:26.690Z,0.16
2023-03-13T01:27:55.062Z,0.12
2023-03-13T01:30:24.058Z,0.07
2023-03-13T01:32:57.392Z,0.07
2023-03-13T01:35:26.782Z,0.01
2023-03-13T01:37:56.870Z,-0.02
2023-03-13T01:40:25.772Z,-0.05
2023-03-13T01:42:58.752Z,-0.07
2023-03-13T01:45:57.748Z,-0.07
2023-03-13T01:48:37.112Z,-0.08
2023-03-13T01:51:13.634Z,-0.10
2023-03-13T01:53:43.474Z,-0.11
2023-03-13T01:56:23.530Z,-0.12
2023-03-13T01:58:52.412Z,-0.12
2023-03-13T02:01:20.744Z,-0.12
2023-03-13T02:03:51.430Z,-0.13
2023-03-13T02:06:19.669Z,-0.15
2023-03-13T02:08:54.635Z,-0.16
2023-03-13T02:11:28.339Z,-0.19
2023-03-13T02:13:57.680Z,-0.21
2023-03-13T02:16:26.696Z,-0.21
2023-03-13T02:18:55.840Z,-0.20
2023-03-13T02:21:43.239Z,-0.15
2023-03-13T02:24:14.497Z,-0.05
2023-03-13T02:26:42.978Z,0.05
2023-03-13T02:29:18.700Z,0.14
2023-03-13T02:31:48.390Z,0.25
2023-03-13T02:34:20.097Z,0.29
2023-03-13T02:36:49.012Z,0.30
2023-03-13T02:39:17.755Z,0.29
2023-03-13T02:41:46.248Z,0.28
2023-03-13T02:44:14.945Z,0.25
2023-03-13T02:46:48.982Z,0.22
2023-03-13T02:49:23.695Z,0.17
2023-03-13T02:51:58.507Z,0.13
2023-03-13T02:54:34.404Z,0.10
2023-03-13T02:57:04.263Z,0.08
2023-03-13T02:59:32.464Z,0.05
2023-03-13T03:02:01.888Z,0.00
2023-03-13T03:04:30.867Z,-0.02
2023-03-13T03:06:59.863Z,-0.05
2023-03-13T03:09:28.847Z,-0.07
2023-03-13T03:12:03.176Z,-0.08
2023-03-13T03:14:31.855Z,-0.08
2023-03-13T03:17:00.652Z,-0.09
2023-03-13T03:19:31.606Z,-0.10
2023-03-13T03:22:00.276Z,-0.12
2023-03-13T03:24:28.751Z,-0.15
2023-03-13T03:26:57.535Z,-0.19
2023-03-13T03:29:29.397Z,-0.21
2023-03-13T03:31:58.062Z,-0.21
2023-03-13T03:34:26.831Z,-0.21
2023-03-13T03:36:56.269Z,-0.26
2023-03-13T03:39:25.170Z,-0.31
2023-03-13T03:41:54.572Z,-0.35
2023-03-13T03:44:23.045Z,-0.39
2023-03-13T03:46:58.641Z,-0.43
2023-03-13T03:49:28.518Z,-0.44
2023-03-13T03:51:57.396Z,-0.45
2023-03-13T03:54:30.705Z,-0.40
2023-03-13T03:56:59.486Z,-0.30
2023-03-13T03:59:33.085Z,-0.22
2023-03-13T04:02:07.561Z,-0.13
2023-03-13T04:04:36.502Z,-0.06
2023-03-13T04:07:23.335Z,-0.00
2023-03-13T04:09:52.213Z,0.03
2023-03-13T04:12:26.420Z,0.02
2023-03-13T04:14:57.073Z,-0.01
2023-03-13T04:17:25.383Z,-0.07
2023-03-13T04:19:54.472Z,-0.10
2023-03-13T04:22:23.115Z,-0.13
2023-03-13T04:24:56.210Z,-0.15
2023-03-13T04:27:25.508Z,-0.18
2023-03-13T04:29:53.881Z,-0.21
2023-03-13T04:32:41.648Z,-0.24
2023-03-13T04:35:28.845Z,-0.25
2023-03-13T04:38:16.059Z,-0.07
2023-03-13T04:41:14.747Z,0.06
2023-03-13T04:44:00.944Z,-0.03
2023-03-13T04:47:00.868Z,-0.17
2023-03-13T04:49:42.041Z,-0.18
2023-03-13T04:52:33.403Z,-0.16
2023-03-13T04:55:15.052Z,-0.14
2023-03-13T04:58:03.608Z,-0.12
2023-03-13T05:00:41.502Z,-0.10
2023-03-13T05:03:23.311Z,-0.08
2023-03-13T05:06:12.721Z,-0.05
2023-03-13T05:09:09.769Z,-0.01
2023-03-13T05:12:02.883Z,0.04
2023-03-13T05:14:57.169Z,0.09
2023-03-13T05:17:45.823Z,0.16
2023-03-13T05:20:32.749Z,0.30
2023-03-13T05:23:20.573Z,0.47
2023-03-13T05:26:11.745Z,0.61
2023-03-13T05:28:52.556Z,0.74
2023-03-13T05:31:36.295Z,0.81
2023-03-13T05:34:40.522Z,0.88
2023-03-13T05:37:40.859Z,0.96
2023-03-13T05:40:33.137Z,1.01
2023-03-13T05:43:13.280Z,1.07
2023-03-13T05:46:05.021Z,1.12
2023-03-13T05:48:53.414Z,1.17
2023-03-13T05:51:52.075Z,1.22
2023-03-13T05:54:41.886Z,1.29
2023-03-13T05:57:23.675Z,1.33
2023-03-13T06:00:05.170Z,1.38
2023-03-13T06:02:44.602Z,1.41
2023-03-13T06:05:18.403Z,1.46
2023-03-13T06:07:49.751Z,1.51
2023-03-13T06:10:18.238Z,1.56
2023-03-13T06:12:53.177Z,1.61
2023-03-13T06:15:22.468Z,1.68
2023-03-13T06:18:19.526Z,1.76
2023-03-13T06:20:49.189Z,1.82
2023-03-13T06:23:17.291Z,1.88
2023-03-13T06:25:48.523Z,1.94
2023-03-13T06:28:17.044Z,2.00
2023-03-13T06:30:45.615Z,2.06
2023-03-13T06:33:14.493Z,2.11
2023-03-13T06:35:55.798Z,2.17
2023-03-13T06:38:25.704Z,2.24
2023-03-13T06:40:55.826Z,2.29
2023-03-13T06:43:24.509Z,2.35
2023-03-13T06:45:53.199Z,2.42
2023-03-13T06:48:23.210Z,2.50
2023-03-13T06:50:51.591Z,2.57
2023-03-13T06:53:20.803Z,2.65
2023-03-13T06:55:51.730Z,2.74
2023-03-13T06:58:31.627Z,2.84
2023-03-13T07:01:07.079Z,2.92
2023-03-13T07:03:36.146Z,3.01
2023-03-13T07:06:06.062Z,3.09
2023-03-13T07:08:34.633Z,3.18
2023-03-13T07:11:08.022Z,3.30
2023-03-13T07:13:38.242Z,3.39
2023-03-13T07:16:08.396Z,3.47
2023-03-13T07:18:42.276Z,3.54
2023-03-13T07:21:11.126Z,3.62
2023-03-13T07:23:39.548Z,3.70
2023-03-13T07:26:10.637Z,3.76
2023-03-13T07:28:39.679Z,3.82
2023-03-13T07:31:13.359Z,3.88
2023-03-13T07:33:45.037Z,3.96
2023-03-13T07:36:15.970Z,4.01
2023-03-13T07:38:50.925Z,4.08
2023-03-13T07:41:20.215Z,4.15
2023-03-13T07:43:50.166Z,4.19
2023-03-13T07:46:20.050Z,4.25
2023-03-13T07:48:51.189Z,4.32
2023-03-13T07:51:36.925Z,4.40
2023-03-13T07:54:16.221Z,4.49
2023-03-13T07:56:45.624Z,4.58
2023-03-13T07:59:13.882Z,4.68
2023-03-13T08:01:42.363Z,4.76
2023-03-13T08:04:13.217Z,4.82
2023-03-13T08:06:47.619Z,4.85
2023-03-13T08:09:16.001Z,4.90
2023-03-13T08:11:46.989Z,4.97
2023-03-13T08:14:15.217Z,5.04
2023-03-13T08:16:44.910Z,5.10
2023-03-13T08:19:13.110Z,5.17
2023-03-13T08:21:42.192Z,5.26
2023-03-13T08:24:11.455Z,5.37
2023-03-13T08:26:42.025Z,5.52
2023-03-13T08:29:12.446Z,5.64
2023-03-13T08:31:48.044Z,5.70
2023-03-13T08:34:17.704Z,5.81
2023-03-13T08:36:46.294Z,5.88
2023-03-13T08:39:15.994Z,5.96
2023-03-13T08:41:45.046Z,6.07
2023-03-13T08:44:14.702Z,6.13
2023-03-13T08:46:44.223Z,6.20
2023-03-13T08:49:13.709Z,6.28
2023-03-13T08:51:42.633Z,6.35
2023-03-13T08:54:10.795Z,6.40
2023-03-13T08:56:41.412Z,6.44
2023-03-13T08:59:10.530Z,6.47
2023-03-13T09:01:38.998Z,6.49
2023-03-13T09:04:08.492Z,6.54
2023-03-13T09:06:37.808Z,6.58
2023-03-13T09:09:07.319Z,6.59
2023-03-13T09:11:42.346Z,6.61
2023-03-13T09:14:10.747Z,6.65
2023-03-13T09:16:39.052Z,6.69
2023-03-13T09:19:07.481Z,6.75
2023-03-13T09:21:41.912Z,6.80
2023-03-13T09:24:11.011Z,6.84
2023-03-13T09:26:42.700Z,6.89
2023-03-13T09:29:14.928Z,6.99
2023-03-13T09:31:43.387Z,7.13
2023-03-13T09:34:12.197Z,7.26
2023-03-13T09:36:41.496Z,7.37
2023-03-13T09:39:09.558Z,7.43
2023-03-13T09:42:11.432Z,7.41
2023-03-13T09:45:04.802Z,7.36
2023-03-13T09:47:46.899Z,7.39
2023-03-13T09:50:25.836Z,7.48
2023-03-13T09:52:57.104Z,7.57
2023-03-13T09:55:35.280Z,7.59
2023-03-13T09:58:25.675Z,7.61
2023-03-13T10:01:04.567Z,7.61
2023-03-13T10:04:21.696Z,7.61
2023-03-13T10:06:50.106Z,7.64
2023-03-13T10:09:33.952Z,7.72
2023-03-13T10:12:19.146Z,7.77
2023-03-13T10:14:58.578Z,7.80
2023-03-13T10:17:37.791Z,7.81
2023-03-13T10:20:34.229Z,7.83
2023-03-13T10:23:15.220Z,7.82
2023-03-13T10:25:43.984Z,7.84
2023-03-13T10:28:13.861Z,7.89
2023-03-13T10:31:08.766Z,7.98
2023-03-13T10:33:37.436Z,8.15
2023-03-13T10:36:11.152Z,8.25
2023-03-13T10:38:50.442Z,8.29
2023-03-13T10:41:45.020Z,8.40
2023-03-13T10:44:15.885Z,8.48
2023-03-13T10:46:46.577Z,8.54
2023-03-13T10:49:20.027Z,8.63
2023-03-13T10:51:55.760Z,8.75
2023-03-13T10:54:29.698Z,8.86
2023-03-13T10:57:20.766Z,8.94
2023-03-13T10:59:52.422Z,8.92
2023-03-13T11:15:57.584Z,9.42
2023-03-13T11:18:31.476Z,9.85
2023-03-13T11:21:15.695Z,10.02
2023-03-13T11:23:50.132Z,10.11
2023-03-13T11:26:23.466Z,10.16
2023-03-13T11:29:18.193Z,10.24
2023-03-13T11:31:51.875Z,10.25
2023-03-13T11:34:25.875Z,10.17
2023-03-13T11:37:02.590Z,10.10
2023-03-13T11:39:52.600Z,10.02
2023-03-13T11:42:39.519Z,9.94
2023-03-13T11:45:34.224Z,9.85
2023-03-13T11:48:08.979Z,9.80
2023-03-13T11:50:47.655Z,9.85
2023-03-13T11:53:46.708Z,9.88
2023-03-13T11:56:24.263Z,9.86
2023-03-13T11:59:27.444Z,9.87
2023-03-13T12:02:19.131Z,9.80
2023-03-13T12:05:19.841Z,9.81
2023-03-13T12:08:00.477Z,9.80
2023-03-13T12:10:36.024Z,9.74
2023-03-13T12:13:04.200Z,9.74
2023-03-13T12:15:39.435Z,9.80
2023-03-13T12:18:20.012Z,9.86
2023-03-13T12:21:36.842Z,9.95
2023-03-13T12:24:39.605Z,10.07
2023-03-13T12:27:34.607Z,10.18
2023-03-13T12:30:14.970Z,10.30
2023-03-13T12:32:57.032Z,10.35
2023-03-13T12:35:33.398Z,10.40
2023-03-13T12:38:25.386Z,10.45
2023-03-13T12:41:08.698Z,10.44
2023-03-13T12:43:39.954Z,10.39
2023-03-13T12:46:36.288Z,10.39
2023-03-13T12:49:18.601Z,10.29
2023-03-13T12:52:26.409Z,10.15
2023-03-13T12:55:00.503Z,10.03
2023-03-13T12:57:55.161Z,9.93
2023-03-13T13:00:25.457Z,9.83
2023-03-13T13:03:39.063Z,9.77
2023-03-13T13:06:16.554Z,9.74
2023-03-13T13:08:54.466Z,9.74
2023-03-13T13:11:37.908Z,9.72
2023-03-13T13:14:19.079Z,9.72
2023-03-13T13:17:16.262Z,9.71
2023-03-13T13:19:46.376Z,9.67
2023-03-13T13:22:37.000Z,9.64
2023-03-13T13:25:08.392Z,9.63
2023-03-13T13:27:37.183Z,9.64
2023-03-13T13:30:17.752Z,9.65
2023-03-13T13:32:46.099Z,9.64
2023-03-13T13:35:20.546Z,9.63
2023-03-13T13:37:49.607Z,9.61
2023-03-13T13:40:24.151Z,9.59
2023-03-13T13:42:56.327Z,9.56
2023-03-13T13:45:45.906Z,9.55
2023-03-13T13:48:34.372Z,9.54
2023-03-13T13:51:11.646Z,9.53
2023-03-13T13:53:56.305Z,9.57
2023-03-13T13:56:28.017Z,9.63
2023-03-13T13:59:03.240Z,9.71
2023-03-13T14:01:31.851Z,9.78
2023-03-13T14:04:41.143Z,9.79
2023-03-13T14:07:19.345Z,9.77
2023-03-13T14:10:10.064Z,9.75
2023-03-13T14:12:39.565Z,9.71
2023-03-13T14:15:29.126Z,9.67
2023-03-13T14:18:16.040Z,9.62
2023-03-13T14:20:50.561Z,9.57
2023-03-13T14:23:45.134Z,9.49
2023-03-13T14:26:13.644Z,9.45
2023-03-13T14:28:43.472Z,9.41
2023-03-13T14:31:22.494Z,9.37
2023-03-13T14:33:50.869Z,9.33
2023-03-13T14:36:19.241Z,9.30
2023-03-13T14:38:55.124Z,9.27
2023-03-13T14:41:33.260Z,9.24
2023-03-13T14:44:06.328Z,9.24
2023-03-13T14:46:36.440Z,9.26
2023-03-13T14:49:25.906Z,9.25
2023-03-13T14:52:20.789Z,9.24
2023-03-13T14:55:02.588Z,9.26
2023-03-13T14:57:31.164Z,9.22
2023-03-13T15:00:29.751Z,9.24
2023-03-13T15:03:21.687Z,9.18
2023-03-13T15:06:07.878Z,9.12
2023-03-13T15:08:37.141Z,9.09
2023-03-13T15:11:22.872Z,9.05
2023-03-13T15:13:51.753Z,9.03
2023-03-13T15:16:21.738Z,9.01
2023-03-13T15:18:50.666Z,8.99
2023-03-13T15:21:24.276Z,8.97
2023-03-13T15:23:56.843Z,8.96
2023-03-13T15:26:25.129Z,8.94
2023-03-13T15:28:53.616Z,8.91
2023-03-13T15:31:25.421Z,8.89
2023-03-13T15:33:59.176Z,8.87
2023-03-13T15:36:30.871Z,8.85
2023-03-13T15:38:58.998Z,8.83
2023-03-13T15:41:27.694Z,8.82
2023-03-13T15:43:57.223Z,8.81
2023-03-13T15:46:25.744Z,8.79
2023-03-13T15:48:55.796Z,8.79
2023-03-13T15:51:24.168Z,8.79
2023-03-13T15:53:53.683Z,8.78
2023-03-13T15:56:25.448Z,8.77
2023-03-13T15:58:54.645Z,8.76
2023-03-13T16:01:23.581Z,8.74
2023-03-13T16:03:52.006Z,8.73
2023-03-13T16:06:31.013Z,8.72
2023-03-13T16:09:01.396Z,8.72
2023-03-13T16:11:30.043Z,8.72
2023-03-13T16:14:00.577Z,8.72
2023-03-13T16:16:31.374Z,8.71
2023-03-13T16:19:00.526Z,8.70
2023-03-13T16:21:30.532Z,8.69
2023-03-13T16:23:59.116Z,8.67
2023-03-13T16:26:29.327Z,8.67
2023-03-13T16:28:58.253Z,8.66
2023-03-13T16:31:28.486Z,8.65
2023-03-13T16:33:57.078Z,8.64
2023-03-13T16:36:28.736Z,8.64
2023-03-13T16:38:58.190Z,8.62
2023-03-13T16:41:27.794Z,8.61
2023-03-13T16:43:56.108Z,8.58
2023-03-13T16:46:30.832Z,8.58
2023-03-13T16:48:59.835Z,8.58
2023-03-13T16:51:28.689Z,8.58
2023-03-13T16:53:57.735Z,8.58
2023-03-13T16:56:30.568Z,8.57
2023-03-13T16:58:59.253Z,8.56
2023-03-13T17:01:30.122Z,8.57
2023-03-13T17:03:58.702Z,8.56
2023-03-13T17:06:29.409Z,8.56
2023-03-13T17:09:04.762Z,8.54
2023-03-13T17:11:34.051Z,8.53
2023-03-13T17:14:03.960Z,8.52
2023-03-13T17:16:33.830Z,8.49
2023-03-13T17:19:03.404Z,8.48
2023-03-13T17:21:35.143Z,8.47
2023-03-13T17:24:03.521Z,8.45
2023-03-13T17:26:36.819Z,8.44
2023-03-13T17:29:05.814Z,8.42
2023-03-13T17:31:38.612Z,8.39
2023-03-13T17:34:10.713Z,8.37
2023-03-13T17:36:40.161Z,8.36
2023-03-13T17:39:10.896Z,8.32
2023-03-13T17:41:39.789Z,8.29
2023-03-13T17:44:08.068Z,8.23
2023-03-13T17:46:39.373Z,8.17
2023-03-13T17:49:08.098Z,8.11
2023-03-13T17:51:36.590Z,8.05
2023-03-13T17:54:05.600Z,8.00
2023-03-13T17:56:39.288Z,7.95
2023-03-13T17:59:13.911Z,7.91
2023-03-13T18:01:42.466Z,7.87
2023-03-13T18:04:12.412Z,7.82
2023-03-13T18:06:47.547Z,7.77
2023-03-13T18:09:20.945Z,7.73
2023-03-13T18:11:50.763Z,7.68
2023-03-13T18:14:19.745Z,7.63
2023-03-13T18:16:48.966Z,7.55
2023-03-13T18:19:23.167Z,7.46
2023-03-13T18:21:55.431Z,7.41
2023-03-13T18:24:28.224Z,7.38
2023-03-13T18:26:56.494Z,7.33
2023-03-13T18:29:29.440Z,7.30
2023-03-13T18:32:00.529Z,7.26
2023-03-13T18:34:28.920Z,7.22
2023-03-13T18:36:57.181Z,7.18
2023-03-13T18:39:25.563Z,7.15
2023-03-13T18:41:54.156Z,7.12
2023-03-13T18:44:24.376Z,7.10
2023-03-13T18:46:53.266Z,7.07
2023-03-13T18:49:22.250Z,7.04
2023-03-13T18:51:51.575Z,7.01
2023-03-13T18:54:19.926Z,6.99
2023-03-13T18:56:48.962Z,6.97
2023-03-13T18:59:21.277Z,7.01
2023-03-13T19:01:49.406Z,7.01
2023-03-13T19:04:17.859Z,7.00
2023-03-13T19:06:46.331Z,6.97
2023-03-13T19:09:41.012Z,6.93
2023-03-13T19:12:05.209Z,6.89
2023-03-13T19:14:34.109Z,6.86
2023-03-13T19:17:02.375Z,6.83
2023-03-13T19:19:32.393Z,6.80
2023-03-13T19:22:01.180Z,6.77
2023-03-13T19:24:29.789Z,6.75
2023-03-13T19:26:59.804Z,6.72
2023-03-13T19:29:28.708Z,6.70
2023-03-13T19:31:59.313Z,6.67
2023-03-13T19:34:28.098Z,6.66
2023-03-13T19:36:56.383Z,6.64
2023-03-13T19:39:27.518Z,6.62
2023-03-13T19:41:57.145Z,6.60
2023-03-13T19:44:30.113Z,6.58
2023-03-13T19:46:58.900Z,6.57
2023-03-13T19:49:27.090Z,6.56
2023-03-13T19:51:55.562Z,6.54
2023-03-13T19:54:24.695Z,6.52
2023-03-13T19:56:53.960Z,6.50
2023-03-13T19:59:23.724Z,6.49
2023-03-13T20:01:51.982Z,6.48
2023-03-13T20:04:20.830Z,6.46
2023-03-13T20:06:49.212Z,6.46
2023-03-13T20:09:18.397Z,6.45
2023-03-13T20:11:46.583Z,6.46
2023-03-13T20:14:16.482Z,6.46
2023-03-13T20:16:47.641Z,6.47
2023-03-13T20:19:16.001Z,6.47
2023-03-13T20:21:44.400Z,6.48
2023-03-13T20:24:12.787Z,6.46
2023-03-13T20:26:41.277Z,6.44
2023-03-13T20:29:10.113Z,6.42
2023-03-13T20:31:39.148Z,6.41
2023-03-13T20:34:09.988Z,6.38
2023-03-13T20:36:39.090Z,6.36
2023-03-13T20:39:08.491Z,6.32
2023-03-13T20:41:37.785Z,6.30
2023-03-13T20:44:05.961Z,6.27
2023-03-13T20:46:35.623Z,6.24
2023-03-13T20:49:03.840Z,6.20
2023-03-13T20:51:34.985Z,6.19
2023-03-13T20:54:03.261Z,6.15
2023-03-13T20:56:31.436Z,6.13
2023-03-13T20:58:59.712Z,6.12
2023-03-13T21:01:29.848Z,6.10
2023-03-13T21:03:59.690Z,6.09
2023-03-13T21:06:27.772Z,6.08
2023-03-13T21:08:56.150Z,6.07
2023-03-13T21:11:25.127Z,6.08
2023-03-13T21:13:53.779Z,6.08
2023-03-13T21:16:25.639Z,6.07
2023-03-13T21:18:54.726Z,6.07
2023-03-13T21:21:22.956Z,6.06
2023-03-13T21:23:53.653Z,6.06
2023-03-13T21:26:22.551Z,6.06
2023-03-13T21:28:52.998Z,6.05
2023-03-13T21:31:21.428Z,6.04
2023-03-13T21:33:49.871Z,6.03
2023-03-13T21:36:21.099Z,6.02
2023-03-13T21:38:50.271Z,6.01
2023-03-13T21:41:24.385Z,6.01
2023-03-13T21:43:53.269Z,6.01
2023-03-13T21:46:22.835Z,6.00
2023-03-13T21:48:52.625Z,6.00
2023-03-13T21:51:20.969Z,6.00
2023-03-13T21:53:49.489Z,5.99
2023-03-13T21:56:18.441Z,5.99
2023-03-13T21:58:46.829Z,5.98
2023-03-13T22:01:16.316Z,5.99
2023-03-13T22:03:44.787Z,5.99
2023-03-13T22:06:15.138Z,5.98
2023-03-13T22:08:50.787Z,5.98
2023-03-13T22:11:21.727Z,5.98
2023-03-13T22:13:51.553Z,5.97
2023-03-13T22:16:21.096Z,5.95
2023-03-13T22:18:51.776Z,5.93
2023-03-13T22:21:20.272Z,5.92
2023-03-13T22:23:48.432Z,5.91
2023-03-13T22:26:17.014Z,5.90
2023-03-13T22:28:45.438Z,5.88
2023-03-13T22:31:18.838Z,5.87
2023-03-13T22:33:47.986Z,5.86
2023-03-13T22:36:16.305Z,5.85
2023-03-13T22:38:44.950Z,5.85
2023-03-13T22:41:13.447Z,5.85
2023-03-13T22:43:41.552Z,5.84
2023-03-13T22:46:14.035Z,5.82
2023-03-13T22:48:42.664Z,5.81
2023-03-13T22:51:12.122Z,5.80
2023-03-13T22:53:41.578Z,5.81
2023-03-13T22:56:12.962Z,5.81
2023-03-13T22:58:42.972Z,5.80
2023-03-13T23:01:19.240Z,5.80
2023-03-13T23:03:50.966Z,5.79
2023-03-13T23:06:20.571Z,5.79
2023-03-13T23:08:49.258Z,5.78
2023-03-13T23:11:17.946Z,5.78
2023-03-13T23:13:50.761Z,5.76
2023-03-13T23:16:20.747Z,5.75
2023-03-13T23:18:48.844Z,5.75
2023-03-13T23:23:21.517Z,5.59
2023-03-13T23:25:49.934Z,5.75
2023-03-13T23:28:19.397Z,5.77
2023-03-13T23:30:47.983Z,5.77
2023-03-13T23:33:20.246Z,5.76
2023-03-13T23:35:48.862Z,5.76
2023-03-13T23:38:18.540Z,5.75
2023-03-13T23:40:46.605Z,5.76
2023-03-13T23:43:14.997Z,5.77
2023-03-13T23:45:43.122Z,5.76
2023-03-13T23:48:12.064Z,5.76
2023-03-13T23:50:40.344Z,5.76
2023-03-13T23:53:08.414Z,5.75
2023-03-13T23:55:36.498Z,5.75
2023-03-13T23:58:05.277Z,5.75
